Time;durP1;ratioP1;P1;durP2;ratioP2;P2;SDS_P1;SDS_P2;PMS_P1;PMS_P2;Temp;Humidity;BMP_temperature;BMP_pressure;BME280_temperature;BME280_humidity;BME280_pressure;Samples;Min_cycle;Max_cycle;Signal;HPM_P1;HPM_P2
2022/05/15 00:00:51;;;;;;;;;;;19.70;84.10;20.00;99612.00;;;;344591;28;86775;-94
2022/05/15 00:00:56;;;;;;;;;;;19.70;84.30;20.20;99616.00;;;;342253;28;91182;-94
2022/05/15 00:01:08;;;;;;;;;;;19.70;84.10;20.20;99611.00;;;;343268;28;87102;-94
2022/05/15 00:01:20;;;;;;;;;;;19.70;84.10;20.00;99611.00;;;;343661;28;88925;-94
2022/05/15 00:01:32;;;;;;;;;;;19.70;84.50;20.00;99611.00;;;;344634;28;87095;-94
2022/05/15 00:01:44;;;;;;;;;;;19.80;84.50;20.00;99615.00;;;;343237;28;90531;-94
2022/05/15 00:01:56;;;;;;;;;;;19.70;84.40;20.00;99608.00;;;;347213;28;87009;-94
2022/05/15 00:02:08;;;;;;;;;;;19.70;84.10;19.90;99610.00;;;;344741;28;90959;-94
2022/05/15 00:02:20;;;;;;;;;;;19.70;84.10;19.90;99613.00;;;;343218;28;88040;-94
2022/05/15 00:02:32;;;;;;;;;;;19.70;84.30;19.90;99618.00;;;;343476;28;90821;-93
2022/05/15 00:02:45;;;;;;;;;;;19.70;84.20;19.80;99608.00;;;;341835;28;87004;-94
2022/05/15 00:02:57;;;;;;;;;;;19.70;84.40;19.80;99615.00;;;;343600;28;89468;-94
2022/05/15 00:03:16;;;;;;;;;;;19.70;84.20;19.90;99610.00;;;;346023;28;88079;-92
2022/05/15 00:03:28;;;;;;;;;;;19.70;83.80;20.00;99615.00;;;;344709;28;89416;-93
2022/05/15 00:03:40;;;;;;;;;;;19.70;83.90;19.90;99608.00;;;;341782;28;87108;-93
2022/05/15 00:03:52;;;;;;;;;;;19.70;84.60;19.90;99619.00;;;;337788;28;89109;-93
2022/05/15 00:04:04;;;;;;;;;;;19.70;84.50;19.90;99611.00;;;;336378;28;87096;-94
2022/05/15 00:04:16;;;;;;;;;;;19.70;84.70;20.00;99615.00;;;;343256;28;90153;-94
2022/05/15 00:04:28;;;;;;;;;;;19.70;84.60;19.90;99610.00;;;;345908;28;86970;-95
2022/05/15 00:04:40;;;;;;;;;;;19.70;84.40;19.90;99611.00;;;;344881;28;90328;-94
2022/05/15 00:04:52;;;;;;;;;;;19.60;84.20;19.80;99605.00;;;;344521;28;87147;-94
2022/05/15 00:05:04;;;;;;;;;;;19.70;84.30;19.90;99611.00;;;;346152;28;90977;-94
2022/05/15 00:05:16;;;;;;;;;;;19.70;84.10;19.90;99608.00;;;;343267;28;85349;-94
2022/05/15 00:05:28;;;;;;;;;;;19.70;84.00;19.80;99613.00;;;;346258;28;89341;-93
2022/05/15 00:05:40;;;;;;;;;;;19.70;84.20;19.90;99604.00;;;;345894;28;87540;-94
2022/05/15 00:05:55;;;;;;;;;;;19.70;84.20;19.90;99618.00;;;;344690;28;89473;-93
2022/05/15 00:06:07;;;;;;;;;;;19.70;84.10;20.00;99616.00;;;;344574;28;86921;-94
2022/05/15 00:06:18;;;;;;;;;;;19.70;83.90;20.00;99611.00;;;;344753;28;88152;-94
2022/05/15 00:06:30;;;;;;;;;;;19.70;84.10;20.00;99612.00;;;;344502;28;87607;-94
2022/05/15 00:06:42;;;;;;;;;;;19.70;85.00;20.00;99610.00;;;;347561;28;89900;-94
2022/05/15 00:06:54;;;;;;;;;;;19.70;84.30;20.00;99617.00;;;;345757;28;88345;-93
2022/05/15 00:07:06;;;;;;;;;;;19.70;84.30;20.00;99612.00;;;;344765;28;89975;-94
2022/05/15 00:07:18;;;;;;;;;;;19.70;84.10;20.00;99611.00;;;;344413;28;89211;-94
2022/05/15 00:07:30;;;;;;;;;;;19.70;84.20;20.00;99611.00;;;;344707;28;90228;-94
2022/05/15 00:07:42;;;;;;;;;;;19.70;84.10;20.00;99603.00;;;;344592;28;87196;-94
2022/05/15 00:07:56;;;;;;;;;;;19.70;84.10;20.00;99604.00;;;;345844;28;91222;-94
2022/05/15 00:08:09;;;;;;;;;;;19.70;83.90;20.00;99612.00;;;;343090;28;88455;-94
2022/05/15 00:08:21;;;;;;;;;;;19.70;83.80;19.90;99599.00;;;;344694;28;91210;-94
2022/05/15 00:08:34;;;;;;;;;;;19.70;84.10;19.90;99610.00;;;;341586;28;87748;-94
2022/05/15 00:08:46;;;;;;;;;;;19.70;84.20;19.80;99604.00;;;;339191;28;89711;-94
2022/05/15 00:08:59;;;;;;;;;;;19.70;84.30;19.70;99602.00;;;;347228;28;88067;-94
2022/05/15 00:09:10;;;;;;;;;;;19.70;84.50;19.70;99609.00;;;;343921;28;90549;-94
2022/05/15 00:09:22;;;;;;;;;;;19.70;84.80;19.80;99607.00;;;;337612;28;88366;-93
2022/05/15 00:09:34;;;;;;;;;;;19.60;84.40;19.80;99610.00;;;;339181;28;90310;-94
2022/05/15 00:09:46;;;;;;;;;;;19.60;84.00;19.80;99608.00;;;;344442;28;87989;-93
2022/05/15 00:09:58;;;;;;;;;;;19.60;83.90;19.80;99603.00;;;;344650;28;90648;-93
2022/05/15 00:10:10;;;;;;;;;;;19.70;83.90;19.90;99609.00;;;;341804;28;86969;-94
2022/05/15 00:10:22;;;;;;;;;;;19.60;83.90;19.80;99603.00;;;;344870;28;89453;-94
2022/05/15 00:10:34;;;;;;;;;;;19.60;84.00;19.80;99616.00;;;;341683;28;87009;-93
2022/05/15 00:10:46;;;;;;;;;;;19.70;83.90;19.90;99611.00;;;;343453;28;89448;-94
2022/05/15 00:10:58;;;;;;;;;;;19.60;83.90;19.90;99604.00;;;;343123;28;87808;-93
2022/05/15 00:11:11;;;;;;;;;;;19.70;83.90;19.90;99609.00;;;;337909;28;89407;-95
2022/05/15 00:11:24;;;;;;;;;;;19.70;84.30;20.00;99608.00;;;;344658;28;87615;-94
2022/05/15 00:11:36;;;;;;;;;;;19.70;84.30;20.00;99605.00;;;;346110;28;89449;-94
2022/05/15 00:11:48;;;;;;;;;;;19.70;84.30;19.90;99608.00;;;;343008;28;87970;-94
2022/05/15 00:12:02;;;;;;;;;;;19.70;84.50;20.00;99600.00;;;;342027;28;90972;-94
2022/05/15 00:12:16;;;;;;;;;;;19.70;84.50;19.90;99608.00;;;;343001;28;87656;-94
2022/05/15 00:12:27;;;;;;;;;;;19.60;84.50;19.90;99607.00;;;;344567;28;90644;-94
2022/05/15 00:12:39;;;;;;;;;;;19.70;84.70;19.80;99612.00;;;;343160;28;88131;-93
2022/05/15 00:12:51;;;;;;;;;;;19.70;85.00;19.80;99603.00;;;;343343;28;91043;-93
2022/05/15 00:13:05;;;;;;;;;;;19.70;84.60;19.80;99606.00;;;;343168;28;86906;-93
2022/05/15 00:13:18;;;;;;;;;;;19.60;84.70;19.90;99604.00;;;;341964;28;89927;-94
2022/05/15 00:13:30;;;;;;;;;;;19.60;84.70;19.70;99604.00;;;;343232;28;87120;-94
2022/05/15 00:13:41;;;;;;;;;;;19.60;84.70;19.60;99604.00;;;;343401;28;88937;-93
2022/05/15 00:13:53;;;;;;;;;;;19.60;85.00;19.50;99604.00;;;;343219;28;87673;-93
2022/05/15 00:14:05;;;;;;;;;;;19.60;85.40;19.60;99608.00;;;;344722;28;91007;-94
2022/05/15 00:14:17;;;;;;;;;;;19.50;85.20;19.60;99601.00;;;;344546;28;87685;-93
2022/05/15 00:14:29;;;;;;;;;;;19.60;85.40;19.80;99604.00;;;;344723;28;90549;-94
2022/05/15 00:14:41;;;;;;;;;;;19.60;85.20;19.90;99607.00;;;;344664;28;86897;-93
2022/05/15 00:14:52;;;;;;;;;;;19.60;85.00;19.90;99605.00;;;;342055;28;90633;-94
2022/05/15 00:15:05;;;;;;;;;;;19.60;84.90;19.90;99609.00;;;;344481;28;87613;-93
2022/05/15 00:15:17;;;;;;;;;;;19.60;85.00;19.90;99601.00;;;;344872;28;90770;-93
2022/05/15 00:15:31;;;;;;;;;;;19.60;85.00;19.90;99607.00;;;;344636;28;88354;-93
2022/05/15 00:15:43;;;;;;;;;;;19.60;85.00;19.80;99611.00;;;;344661;28;90301;-94
2022/05/15 00:15:55;;;;;;;;;;;19.60;85.10;19.90;99606.00;;;;341758;28;86985;-94
2022/05/15 00:16:07;;;;;;;;;;;19.60;84.70;19.90;99609.00;;;;343593;28;89646;-93
2022/05/15 00:16:20;;;;;;;;;;;19.60;84.70;19.90;99610.00;;;;343206;28;88250;-93
2022/05/15 00:16:32;;;;;;;;;;;19.60;84.70;19.70;99607.00;;;;343399;28;91314;-94
2022/05/15 00:16:44;;;;;;;;;;;19.60;85.00;19.70;99605.00;;;;341691;28;87952;-93
2022/05/15 00:16:56;;;;;;;;;;;19.60;85.40;19.70;99596.00;;;;343358;28;87984;-94
2022/05/15 00:17:08;;;;;;;;;;;19.60;85.20;19.70;99603.00;;;;344711;28;87605;-93
2022/05/15 00:17:20;;;;;;;;;;;19.60;84.80;19.80;99606.00;;;;345055;28;91292;-94
2022/05/15 00:17:32;;;;;;;;;;;19.60;84.60;19.80;99613.00;;;;346116;28;85573;-93
2022/05/15 00:17:44;;;;;;;;;;;19.60;84.50;19.80;99606.00;;;;345033;28;89072;-93
2022/05/15 00:17:55;;;;;;;;;;;19.60;84.50;19.70;99607.00;;;;343265;28;87031;-93
2022/05/15 00:18:08;;;;;;;;;;;19.60;84.50;19.70;99609.00;;;;342101;28;90904;-94
2022/05/15 00:18:20;;;;;;;;;;;19.50;84.40;19.80;99601.00;;;;343199;28;87013;-94
2022/05/15 00:18:32;;;;;;;;;;;19.60;84.50;19.80;99612.00;;;;344677;28;91462;-94
2022/05/15 00:18:44;;;;;;;;;;;19.50;84.40;19.80;99609.00;;;;345885;28;87538;-93
2022/05/15 00:18:56;;;;;;;;;;;19.60;84.30;19.80;99606.00;;;;343359;28;89962;-94
2022/05/15 00:19:09;;;;;;;;;;;19.60;84.30;19.70;99611.00;;;;343062;28;88090;-93
2022/05/15 00:19:21;;;;;;;;;;;19.60;84.60;19.80;99607.00;;;;344909;28;89819;-93
2022/05/15 00:19:33;;;;;;;;;;;19.50;84.50;19.90;99611.00;;;;344765;28;88008;-94
2022/05/15 00:19:45;;;;;;;;;;;19.60;84.80;19.80;99614.00;;;;344923;28;89838;-93
2022/05/15 00:19:56;;;;;;;;;;;19.50;84.70;19.90;99611.00;;;;344679;28;86855;-93
2022/05/15 00:20:09;;;;;;;;;;;19.60;84.80;19.90;99612.00;;;;342014;28;90044;-94
2022/05/15 00:20:21;;;;;;;;;;;19.60;84.90;19.90;99610.00;;;;344598;28;86992;-94
2022/05/15 00:20:32;;;;;;;;;;;19.60;85.00;19.90;99614.00;;;;340696;28;89819;-94
2022/05/15 00:20:44;;;;;;;;;;;19.60;85.10;19.80;99607.00;;;;337830;28;86967;-94
2022/05/15 00:20:56;;;;;;;;;;;19.60;85.00;19.70;99608.00;;;;346179;28;89906;-94
2022/05/15 00:21:10;;;;;;;;;;;19.60;85.20;19.90;99608.00;;;;344790;28;87131;-93
2022/05/15 00:21:21;;;;;;;;;;;19.60;85.20;19.90;99609.00;;;;344846;28;90870;-94
2022/05/15 00:21:33;;;;;;;;;;;19.60;85.30;19.90;99612.00;;;;345999;28;87513;-93
2022/05/15 00:21:45;;;;;;;;;;;19.60;85.30;19.90;99611.00;;;;347500;27;90337;-94
2022/05/15 00:21:57;;;;;;;;;;;19.50;85.30;19.90;99610.00;;;;344519;28;86885;-94
2022/05/15 00:22:09;;;;;;;;;;;19.60;85.30;19.90;99611.00;;;;336679;28;90438;-94
2022/05/15 00:22:21;;;;;;;;;;;19.60;85.30;19.70;99612.00;;;;339194;28;88014;-94
2022/05/15 00:22:35;;;;;;;;;;;19.60;85.30;19.60;99610.00;;;;346048;28;90215;-93
2022/05/15 00:22:47;;;;;;;;;;;19.60;85.20;19.70;99607.00;;;;343459;28;86958;-93
2022/05/15 00:22:59;;;;;;;;;;;19.60;85.20;19.80;99611.00;;;;347653;28;90382;-93
2022/05/15 00:23:11;;;;;;;;;;;19.60;85.30;19.60;99615.00;;;;343069;28;87165;-94
2022/05/15 00:23:24;;;;;;;;;;;19.60;85.60;19.60;99613.00;;;;343686;28;90492;-93
2022/05/15 00:23:36;;;;;;;;;;;19.50;85.60;19.70;99613.00;;;;344893;28;86499;-93
2022/05/15 00:23:48;;;;;;;;;;;19.50;85.40;19.60;99615.00;;;;344618;28;90398;-93
2022/05/15 00:23:59;;;;;;;;;;;19.50;85.30;19.50;99612.00;;;;337723;28;87060;-93
2022/05/15 00:24:11;;;;;;;;;;;19.50;85.30;19.40;99614.00;;;;337399;28;90018;-94
2022/05/15 00:24:23;;;;;;;;;;;19.50;85.50;19.40;99613.00;;;;342043;28;86859;-93
2022/05/15 00:24:35;;;;;;;;;;;19.50;85.70;19.30;99615.00;;;;342538;28;90366;-93
2022/05/15 00:24:47;;;;;;;;;;;19.50;85.80;19.30;99611.00;;;;343426;28;87484;-93
2022/05/15 00:25:01;;;;;;;;;;;19.50;85.80;19.30;99614.00;;;;344890;28;89418;-93
2022/05/15 00:25:13;;;;;;;;;;;19.50;85.90;19.20;99618.00;;;;344878;28;87253;-93
2022/05/15 00:25:25;;;;;;;;;;;19.40;85.90;19.20;99611.00;;;;343417;28;89579;-93
2022/05/15 00:25:37;;;;;;;;;;;19.40;86.00;19.20;99618.00;;;;343499;28;86836;-93
2022/05/15 00:25:49;;;;;;;;;;;19.40;86.00;19.20;99611.00;;;;346356;28;89366;-94
2022/05/15 00:26:01;;;;;;;;;;;19.40;86.10;19.40;99614.00;;;;344724;28;88091;-94
2022/05/15 00:26:13;;;;;;;;;;;19.40;85.70;19.30;99616.00;;;;343715;28;91242;-93
2022/05/15 00:26:25;;;;;;;;;;;19.30;85.70;19.40;99612.00;;;;343387;28;87790;-93
2022/05/15 00:26:37;;;;;;;;;;;19.30;85.60;19.30;99609.00;;;;345102;28;88366;-94
2022/05/15 00:26:49;;;;;;;;;;;19.30;85.70;19.40;99607.00;;;;344751;28;87032;-93
2022/05/15 00:27:01;;;;;;;;;;;19.30;85.90;19.30;99608.00;;;;345023;28;91420;-93
2022/05/15 00:27:12;;;;;;;;;;;19.30;86.00;19.30;99611.00;;;;342669;28;87958;-93
2022/05/15 00:27:24;;;;;;;;;;;19.30;86.10;19.40;99610.00;;;;343481;28;89809;-94
2022/05/15 00:27:36;;;;;;;;;;;19.30;85.80;19.40;99609.00;;;;344696;28;87195;-93
2022/05/15 00:27:48;;;;;;;;;;;19.30;85.50;19.40;99614.00;;;;343574;28;88718;-94
2022/05/15 00:27:59;;;;;;;;;;;19.30;85.20;19.40;99615.00;;;;344906;28;87367;-93
2022/05/15 00:28:13;;;;;;;;;;;19.30;85.20;19.40;99610.00;;;;344765;28;89607;-93
2022/05/15 00:28:25;;;;;;;;;;;19.30;85.30;19.30;99614.00;;;;345943;28;86191;-93
2022/05/15 00:28:37;;;;;;;;;;;19.30;86.10;19.30;99610.00;;;;343537;28;90763;-94
2022/05/15 00:28:48;;;;;;;;;;;19.30;86.10;19.30;99615.00;;;;343548;28;86561;-94
2022/05/15 00:29:00;;;;;;;;;;;19.20;85.60;19.40;99605.00;;;;344900;28;90088;-94
2022/05/15 00:29:13;;;;;;;;;;;19.20;85.30;19.40;99622.00;;;;344623;28;86804;-93
2022/05/15 00:29:25;;;;;;;;;;;19.20;85.10;19.50;99611.00;;;;343662;28;89083;-93
2022/05/15 00:29:37;;;;;;;;;;;19.30;85.60;19.60;99617.00;;;;343210;28;88139;-94
2022/05/15 00:29:49;;;;;;;;;;;19.30;86.10;19.50;99611.00;;;;346219;28;89132;-93
2022/05/15 00:30:00;;;;;;;;;;;19.30;86.20;19.50;99606.00;;;;344861;28;86837;-94
2022/05/15 00:30:13;;;;;;;;;;;19.30;86.10;19.60;99616.00;;;;345788;28;89756;-93
2022/05/15 00:30:25;;;;;;;;;;;19.30;86.00;19.60;99609.00;;;;342024;28;87180;-93
2022/05/15 00:30:37;;;;;;;;;;;19.30;86.10;19.70;99618.00;;;;345377;28;90074;-94
2022/05/15 00:30:49;;;;;;;;;;;19.30;86.20;19.60;99614.00;;;;345428;28;87308;-95
2022/05/15 00:31:02;;;;;;;;;;;19.30;86.40;19.60;99620.00;;;;344945;28;89383;-94
2022/05/15 00:31:14;;;;;;;;;;;19.30;86.10;19.50;99617.00;;;;349866;27;86873;-94
2022/05/15 00:31:26;;;;;;;;;;;19.30;86.30;19.50;99613.00;;;;346465;28;88940;-93
2022/05/15 00:31:38;;;;;;;;;;;19.30;86.30;19.40;99612.00;;;;344748;28;86577;-94
2022/05/15 00:31:50;;;;;;;;;;;19.30;86.30;19.40;99611.00;;;;347668;28;89229;-93
2022/05/15 00:32:02;;;;;;;;;;;19.20;86.60;19.40;99612.00;;;;346135;28;86920;-94
2022/05/15 00:32:14;;;;;;;;;;;19.20;86.40;19.50;99617.00;;;;345066;28;89413;-93
2022/05/15 00:32:25;;;;;;;;;;;19.20;86.00;19.50;99609.00;;;;346023;28;86950;-95
2022/05/15 00:32:37;;;;;;;;;;;19.20;85.90;19.50;99615.00;;;;344979;28;89372;-94
2022/05/15 00:32:49;;;;;;;;;;;19.20;85.90;19.50;99617.00;;;;346083;28;86814;-93
2022/05/15 00:33:01;;;;;;;;;;;19.20;85.90;19.50;99616.00;;;;346285;28;90021;-94
2022/05/15 00:33:13;;;;;;;;;;;19.20;86.20;19.40;99617.00;;;;344672;28;87150;-93
2022/05/15 00:33:24;;;;;;;;;;;19.20;86.60;19.50;99619.00;;;;344828;28;89696;-94
2022/05/15 00:33:36;;;;;;;;;;;19.20;86.60;19.50;99613.00;;;;346247;28;88376;-93
2022/05/15 00:33:48;;;;;;;;;;;19.20;86.70;19.40;99614.00;;;;346616;28;89026;-93
2022/05/15 00:34:00;;;;;;;;;;;19.20;86.70;19.30;99614.00;;;;346164;28;87282;-93
2022/05/15 00:34:12;;;;;;;;;;;19.20;86.90;19.20;99614.00;;;;347707;28;90081;-93
2022/05/15 00:34:24;;;;;;;;;;;19.20;86.90;19.20;99613.00;;;;347454;28;87057;-93
2022/05/15 00:34:35;;;;;;;;;;;19.20;87.10;19.10;99614.00;;;;344906;28;90088;-93
2022/05/15 00:34:47;;;;;;;;;;;19.10;87.10;19.20;99605.00;;;;343515;28;86742;-93
2022/05/15 00:34:59;;;;;;;;;;;19.10;87.00;19.20;99615.00;;;;346366;28;89316;-93
2022/05/15 00:35:11;;;;;;;;;;;19.10;87.10;19.20;99614.00;;;;347525;28;86634;-93
2022/05/15 00:35:23;;;;;;;;;;;19.10;87.10;19.10;99614.00;;;;346433;28;89615;-94
2022/05/15 00:35:35;;;;;;;;;;;19.10;87.10;19.20;99609.00;;;;347242;28;86835;-94
2022/05/15 00:35:47;;;;;;;;;;;19.10;87.10;19.20;99608.00;;;;344974;28;90747;-93
2022/05/15 00:35:59;;;;;;;;;;;19.10;87.10;19.10;99612.00;;;;347543;28;86507;-94
2022/05/15 00:36:12;;;;;;;;;;;19.10;86.80;19.20;99616.00;;;;346683;28;89481;-94
2022/05/15 00:36:23;;;;;;;;;;;19.10;86.60;19.20;99613.00;;;;347568;28;86557;-94
2022/05/15 00:36:35;;;;;;;;;;;19.10;86.50;19.30;99612.00;;;;347857;28;90072;-93
2022/05/15 00:36:47;;;;;;;;;;;19.10;86.20;19.20;99615.00;;;;344767;28;87109;-94
2022/05/15 00:36:59;;;;;;;;;;;19.10;86.50;19.20;99611.00;;;;347729;28;89563;-94
2022/05/15 00:37:10;;;;;;;;;;;19.10;87.10;19.10;99617.00;;;;347450;28;86814;-94
2022/05/15 00:37:22;;;;;;;;;;;19.00;87.00;19.00;99609.00;;;;347746;28;89641;-94
2022/05/15 00:37:34;;;;;;;;;;;19.00;87.00;19.00;99605.00;;;;346136;28;86542;-94
2022/05/15 00:37:46;;;;;;;;;;;19.00;87.00;19.00;99607.00;;;;346367;28;88709;-94
2022/05/15 00:37:58;;;;;;;;;;;19.00;87.00;19.20;99602.00;;;;350336;27;87194;-94
2022/05/15 00:38:10;;;;;;;;;;;19.00;86.80;19.20;99612.00;;;;349145;28;90163;-93
2022/05/15 00:38:22;;;;;;;;;;;19.00;86.90;19.20;99604.00;;;;348594;28;86742;-94
2022/05/15 00:38:34;;;;;;;;;;;19.00;87.00;19.10;99613.00;;;;346378;28;89721;-93
2022/05/15 00:38:46;;;;;;;;;;;19.00;86.70;19.10;99611.00;;;;347544;28;87247;-94
2022/05/15 00:39:00;;;;;;;;;;;19.00;86.80;19.10;99610.00;;;;347809;28;89818;-93
2022/05/15 00:39:12;;;;;;;;;;;19.00;87.00;19.10;99612.00;;;;346501;28;87339;-93
2022/05/15 00:39:24;;;;;;;;;;;19.00;87.10;19.10;99603.00;;;;347588;28;91559;-95
2022/05/15 00:39:36;;;;;;;;;;;19.00;87.20;19.00;99607.00;;;;348970;28;86832;-94
2022/05/15 00:39:47;;;;;;;;;;;19.00;87.20;19.10;99613.00;;;;350523;27;89068;-94
2022/05/15 00:39:59;;;;;;;;;;;19.00;87.30;19.10;99605.00;;;;344677;28;86833;-93
2022/05/15 00:40:12;;;;;;;;;;;19.00;87.00;19.10;99611.00;;;;346442;28;90171;-93
2022/05/15 00:40:24;;;;;;;;;;;19.00;86.90;19.10;99608.00;;;;346134;28;88002;-93
2022/05/15 00:40:40;;;;;;;;;;;18.90;86.90;19.00;99607.00;;;;346445;28;90006;-94
2022/05/15 00:40:51;;;;;;;;;;;18.90;86.90;19.10;99605.00;;;;346161;28;87058;-93
2022/05/15 00:41:04;;;;;;;;;;;18.90;86.90;19.10;99612.00;;;;347715;28;89792;-95
2022/05/15 00:41:16;;;;;;;;;;;18.90;87.20;19.00;99597.00;;;;341863;28;86918;-94
2022/05/15 00:41:29;;;;;;;;;;;18.90;87.40;18.90;99605.00;;;;342145;28;89456;-94
2022/05/15 00:41:40;;;;;;;;;;;18.90;87.30;19.00;99602.00;;;;347534;28;86623;-93
2022/05/15 00:41:52;;;;;;;;;;;18.90;87.30;19.00;99606.00;;;;347695;28;89402;-93
2022/05/15 00:42:09;;;;;;;;;;;18.90;86.90;19.00;99607.00;;;;346124;28;86781;-94
2022/05/15 00:42:21;;;;;;;;;;;18.90;87.00;19.00;99597.00;;;;347654;28;89556;-94
2022/05/15 00:42:33;;;;;;;;;;;18.90;86.90;19.10;99597.00;;;;347474;28;86691;-94
2022/05/15 00:42:45;;;;;;;;;;;18.90;86.60;19.10;99609.00;;;;345051;28;89970;-94
2022/05/15 00:42:57;;;;;;;;;;;18.90;86.50;19.20;99605.00;;;;343481;28;87053;-93
2022/05/15 00:43:31;;;;;;;;;;;18.90;86.70;19.20;99609.00;;;;343573;28;89523;-94
2022/05/15 00:43:50;;;;;;;;;;;18.90;86.90;19.20;99611.00;;;;347563;28;86593;-94
2022/05/15 00:44:02;;;;;;;;;;;18.90;86.90;19.20;99604.00;;;;347869;28;89656;-94
2022/05/15 00:44:14;;;;;;;;;;;18.90;86.80;19.10;99612.00;;;;347620;28;87292;-94
2022/05/15 00:44:26;;;;;;;;;;;18.90;86.90;19.20;99604.00;;;;347603;28;89245;-94
2022/05/15 00:44:38;;;;;;;;;;;18.90;86.90;19.20;99608.00;;;;346062;28;86409;-93
2022/05/15 00:44:49;;;;;;;;;;;18.90;86.70;19.30;99610.00;;;;347818;28;90593;-93
2022/05/15 00:45:03;;;;;;;;;;;19.00;86.80;19.20;99614.00;;;;346137;28;86891;-94
2022/05/15 00:45:16;;;;;;;;;;;18.90;86.80;19.30;99610.00;;;;347281;28;89855;-93
2022/05/15 00:45:28;;;;;;;;;;;19.00;86.80;19.10;99612.00;;;;347432;28;87088;-93
2022/05/15 00:45:40;;;;;;;;;;;18.90;86.90;19.10;99613.00;;;;346347;28;88965;-93
2022/05/15 00:45:51;;;;;;;;;;;18.90;87.00;19.20;99612.00;;;;344554;28;86526;-93
2022/05/15 00:46:04;;;;;;;;;;;19.00;87.20;19.30;99608.00;;;;346380;28;90094;-93
2022/05/15 00:46:22;;;;;;;;;;;19.00;87.30;19.30;99610.00;;;;348839;28;86302;-93
2022/05/15 00:46:36;;;;;;;;;;;19.00;87.50;19.30;99611.00;;;;347812;28;88775;-93
2022/05/15 00:46:48;;;;;;;;;;;19.00;87.00;19.10;99606.00;;;;346131;28;86080;-93
2022/05/15 00:47:00;;;;;;;;;;;19.00;87.60;19.20;99616.00;;;;349135;28;89823;-93
2022/05/15 00:47:12;;;;;;;;;;;19.00;87.60;19.10;99617.00;;;;347360;28;86960;-93
2022/05/15 00:47:24;;;;;;;;;;;19.00;87.70;19.10;99612.00;;;;346286;28;89584;-93
2022/05/15 00:47:35;;;;;;;;;;;18.90;87.70;19.20;99614.00;;;;350297;27;86775;-93
2022/05/15 00:47:47;;;;;;;;;;;18.90;87.10;19.10;99613.00;;;;346319;28;89434;-93
2022/05/15 00:47:59;;;;;;;;;;;18.90;87.60;19.10;99615.00;;;;348807;28;86893;-93
2022/05/15 00:48:11;;;;;;;;;;;18.90;87.90;19.10;99612.00;;;;347211;28;90179;-93
2022/05/15 00:48:23;;;;;;;;;;;18.90;87.90;19.10;99607.00;;;;346153;28;87320;-93
2022/05/15 00:48:34;;;;;;;;;;;18.90;87.80;19.10;99611.00;;;;346436;28;89243;-93
2022/05/15 00:48:47;;;;;;;;;;;18.90;87.40;19.00;99611.00;;;;344599;28;87184;-93
2022/05/15 00:49:00;;;;;;;;;;;18.90;87.90;19.00;99612.00;;;;346360;28;89948;-93
2022/05/15 00:49:13;;;;;;;;;;;18.90;87.90;18.90;99607.00;;;;348167;27;86899;-94
2022/05/15 00:49:24;;;;;;;;;;;18.90;88.10;18.90;99612.00;;;;346185;28;91336;-93
2022/05/15 00:49:37;;;;;;;;;;;18.90;88.50;18.90;99620.00;;;;346058;28;87080;-93
2022/05/15 00:49:49;;;;;;;;;;;18.90;88.30;18.80;99609.00;;;;346185;28;87217;-93
2022/05/15 00:50:10;;;;;;;;;;;18.90;88.40;18.80;99619.00;;;;348933;28;86852;-93
2022/05/15 00:50:25;;;;;;;;;;;18.80;88.30;18.80;99610.00;;;;342127;28;90110;-93
2022/05/15 00:50:37;;;;;;;;;;;18.80;88.20;18.70;99623.00;;;;344751;28;87186;-93
2022/05/15 00:50:49;;;;;;;;;;;18.90;88.30;18.70;99614.00;;;;346403;28;89062;-93
2022/05/15 00:51:03;;;;;;;;;;;18.80;88.10;18.70;99616.00;;;;346093;28;86664;-93
2022/05/15 00:51:35;;;;;;;;;;;18.80;88.30;18.70;99619.00;;;;346673;28;89897;-93
2022/05/15 00:51:49;;;;;;;;;;;18.80;88.30;18.70;99616.00;;;;345954;28;86858;-93
2022/05/15 00:52:06;;;;;;;;;;;18.80;88.60;18.80;99618.00;;;;349143;28;91314;-93
2022/05/15 00:52:21;;;;;;;;;;;18.70;88.20;18.80;99618.00;;;;339167;28;86732;-93
2022/05/15 00:52:34;;;;;;;;;;;18.70;88.00;18.70;99621.00;;;;340568;28;89730;-93
2022/05/15 00:52:48;;;;;;;;;;;18.70;88.10;18.80;99621.00;;;;344567;28;86146;-93
2022/05/15 00:53:02;;;;;;;;;;;18.70;88.10;18.90;99614.00;;;;346384;28;89777;-93
2022/05/15 00:53:14;;;;;;;;;;;18.70;87.90;18.80;99618.00;;;;346239;28;86736;-93
2022/05/15 00:53:26;;;;;;;;;;;18.70;88.00;18.70;99621.00;;;;349204;28;88880;-93
2022/05/15 00:53:38;;;;;;;;;;;18.70;88.30;18.70;99624.00;;;;346277;28;86737;-93
2022/05/15 00:53:52;;;;;;;;;;;18.70;88.10;18.70;99622.00;;;;347552;28;89689;-93
2022/05/15 00:54:32;;;;;;;;;;;18.70;88.30;18.70;99624.00;;;;348970;28;86797;-93
2022/05/15 00:54:59;;;;;;;;;;;18.70;88.20;18.80;99616.00;;;;348436;28;90362;-93
2022/05/15 00:55:23;;;;;;;;;;;18.70;87.50;18.80;99614.00;;;;345640;28;86698;-93
2022/05/15 00:55:43;;;;;;;;;;;18.70;87.80;18.80;99625.00;;;;339444;28;89561;-94
2022/05/15 00:55:55;;;;;;;;;;;18.70;87.60;18.80;99615.00;;;;346003;28;86740;-93
2022/05/15 00:56:06;;;;;;;;;;;18.70;88.00;18.80;99621.00;;;;346375;28;91100;-93
2022/05/15 00:56:20;;;;;;;;;;;18.60;87.80;18.70;99617.00;;;;348919;28;87101;-93
2022/05/15 00:56:32;;;;;;;;;;;18.60;88.10;18.80;99621.00;;;;347675;28;88406;-93
2022/05/15 00:56:47;;;;;;;;;;;18.60;88.20;18.80;99616.00;;;;348913;28;87053;-93
2022/05/15 00:57:07;;;;;;;;;;;18.60;87.90;19.00;99623.00;;;;346331;28;89809;-93
2022/05/15 00:57:21;;;;;;;;;;;18.60;87.80;18.90;99620.00;;;;348026;28;86394;-93
2022/05/15 00:57:54;;;;;;;;;;;18.60;88.20;18.60;99618.00;;;;349076;28;89947;-94
2022/05/15 00:58:10;;;;;;;;;;;18.60;88.00;18.60;99619.00;;;;344412;28;87070;-93
2022/05/15 00:58:25;;;;;;;;;;;18.60;88.40;18.60;99624.00;;;;347668;28;89584;-93
2022/05/15 00:58:39;;;;;;;;;;;18.60;88.50;18.70;99620.00;;;;346081;28;87033;-94
2022/05/15 00:59:02;;;;;;;;;;;18.60;88.40;18.60;99626.00;;;;346280;28;89797;-93
2022/05/15 00:59:15;;;;;;;;;;;18.50;88.30;18.60;99614.00;;;;344547;28;87226;-94
2022/05/15 00:59:28;;;;;;;;;;;18.60;88.40;18.60;99620.00;;;;347544;28;89105;-93
2022/05/15 00:59:49;;;;;;;;;;;18.50;88.40;18.60;99620.00;;;;345712;28;86861;-93
2022/05/15 01:00:13;;;;;;;;;;;18.50;88.40;18.70;99623.00;;;;346123;28;89972;-93
2022/05/15 01:00:29;;;;;;;;;;;18.50;88.20;18.60;99617.00;;;;347645;28;87289;-93
2022/05/15 01:00:41;;;;;;;;;;;18.50;88.20;18.60;99617.00;;;;347317;28;90086;-93
2022/05/15 01:00:53;;;;;;;;;;;18.50;88.40;18.60;99617.00;;;;347225;28;86911;-93
2022/05/15 01:01:05;;;;;;;;;;;18.50;88.10;18.70;99616.00;;;;350321;27;89680;-94
2022/05/15 01:01:17;;;;;;;;;;;18.50;88.40;18.60;99617.00;;;;347366;28;87221;-92
2022/05/15 01:01:29;;;;;;;;;;;18.50;88.50;18.60;99614.00;;;;351447;27;90654;-93
2022/05/15 01:01:41;;;;;;;;;;;18.50;88.50;18.60;99616.00;;;;347215;28;86714;-93
2022/05/15 01:01:53;;;;;;;;;;;18.50;88.40;18.60;99618.00;;;;345730;28;89790;-92
2022/05/15 01:02:08;;;;;;;;;;;18.50;88.10;18.60;99624.00;;;;350024;27;87041;-93
2022/05/15 01:02:20;;;;;;;;;;;18.50;88.10;18.60;99615.00;;;;347312;28;90100;-94
2022/05/15 01:03:03;;;;;;;;;;;18.50;87.80;18.60;99623.00;;;;347141;28;87018;-93
2022/05/15 01:03:16;;;;;;;;;;;18.50;87.80;18.70;99620.00;;;;342007;28;91248;-93
2022/05/15 01:03:28;;;;;;;;;;;18.50;87.50;18.70;99617.00;;;;342742;28;88458;-93
2022/05/15 01:03:42;;;;;;;;;;;18.50;87.50;18.60;99613.00;;;;344532;28;89807;-93
2022/05/15 01:03:53;;;;;;;;;;;18.50;87.80;18.60;99620.00;;;;344389;28;87017;-94
2022/05/15 01:04:05;;;;;;;;;;;18.50;88.10;18.70;99615.00;;;;343253;28;89807;-93
2022/05/15 01:04:17;;;;;;;;;;;18.50;88.00;18.70;99618.00;;;;345450;28;87077;-92
2022/05/15 01:04:31;;;;;;;;;;;18.50;87.80;18.70;99617.00;;;;344668;28;90494;-93
2022/05/15 01:04:43;;;;;;;;;;;18.50;87.90;18.70;99613.00;;;;345750;28;87202;-93
2022/05/15 01:04:54;;;;;;;;;;;18.50;87.80;18.60;99622.00;;;;344291;28;89921;-93
2022/05/15 01:05:08;;;;;;;;;;;18.50;88.00;18.70;99621.00;;;;343153;28;87105;-93